Loventuel, Argentina
Current Conditions -  °F | °C
As of 5:00 AM on Saturday 01 Nov 2014 (Local Time) from SAOC Reporting Station
Drizzle Drizzle  
Wind Chill: 54°   Ceiling: 500
Heat Index: 54°   Visibility: 3mi
Dew Point: 54°   Wind: 17mph
Humidity: 100%   Direction: 90°E
Pressure: 30.12"   Gusts: 29mph
Location:  36.2°S, 65.19°W
Report Text: SAOC 010800Z 09015G25KT 5000 -DZ BKN005OVC045 12/12 Q1020 RERA
Loading
Personal Weather Stations






























Interactive Weather Map
Tropical Storm Tracking
New forecast layout! Learn more

10-Day Weather Forecast

Advertisements
Track Severe Weather on mobile